createdAt,value
2018-08-22T00:01:51.106Z,20.43
2018-08-22T00:04:19.596Z,22.20
2018-08-22T00:06:48.080Z,20.50
2018-08-22T00:09:16.573Z,19.30
2018-08-22T00:11:45.073Z,18.73
2018-08-22T00:14:13.558Z,21.73
2018-08-22T00:16:42.066Z,20.90
2018-08-22T00:19:10.587Z,20.50
2018-08-22T00:21:39.086Z,20.60
2018-08-22T00:24:07.599Z,18.97
2018-08-22T00:26:36.102Z,29.63
2018-08-22T00:29:04.779Z,18.33
2018-08-22T00:31:33.335Z,16.27
2018-08-22T00:34:01.808Z,21.23
2018-08-22T00:36:30.290Z,25.00
2018-08-22T00:38:58.774Z,19.40
2018-08-22T00:41:27.723Z,20.03
2018-08-22T00:43:56.258Z,17.10
2018-08-22T00:46:24.736Z,18.77
2018-08-22T00:48:53.224Z,15.87
2018-08-22T00:51:21.715Z,22.50
2018-08-22T00:53:50.247Z,21.33
2018-08-22T00:56:18.719Z,21.83
2018-08-22T00:58:47.243Z,15.80
2018-08-22T01:01:15.732Z,15.40
2018-08-22T01:03:44.275Z,17.83
2018-08-22T01:06:12.764Z,18.57
2018-08-22T01:08:41.250Z,25.83
2018-08-22T01:11:09.746Z,18.50
2018-08-22T01:13:38.208Z,22.47
2018-08-22T01:16:06.751Z,19.40
2018-08-22T01:18:35.223Z,16.37
2018-08-22T01:21:03.759Z,17.50
2018-08-22T01:23:32.342Z,18.33
2018-08-22T01:26:00.853Z,16.57
2018-08-22T01:28:29.315Z,20.67
2018-08-22T01:30:57.806Z,15.50
2018-08-22T01:33:26.293Z,16.07
2018-08-22T01:35:54.795Z,17.40
2018-08-22T01:38:23.316Z,15.73
2018-08-22T01:40:51.816Z,20.40
2018-08-22T01:43:20.434Z,18.13
2018-08-22T01:45:48.887Z,19.27
2018-08-22T01:48:17.451Z,17.27
2018-08-22T01:50:45.980Z,32.70
2018-08-22T01:53:14.491Z,19.33
2018-08-22T01:55:42.980Z,19.57
2018-08-22T01:58:11.438Z,15.33
2018-08-22T02:00:39.941Z,18.47
2018-08-22T02:03:08.428Z,22.40
2018-08-22T02:05:36.947Z,23.97
2018-08-22T02:08:05.476Z,20.20
2018-08-22T02:10:33.965Z,18.77
2018-08-22T02:13:02.443Z,14.70
2018-08-22T02:15:30.982Z,16.57
2018-08-22T02:17:59.451Z,20.73
2018-08-22T02:20:27.933Z,18.30
2018-08-22T02:22:56.508Z,16.40
2018-08-22T02:25:25.027Z,20.10
2018-08-22T02:27:53.548Z,19.23
2018-08-22T02:30:22.097Z,17.57
2018-08-22T02:32:50.750Z,18.50
2018-08-22T02:35:19.239Z,18.53
2018-08-22T02:37:47.765Z,15.97
2018-08-22T02:40:16.277Z,20.30
2018-08-22T02:42:44.766Z,19.93
2018-08-22T02:45:13.322Z,22.73
2018-08-22T02:47:41.812Z,22.77
2018-08-22T02:50:10.351Z,17.80
2018-08-22T02:52:38.833Z,17.83
2018-08-22T02:55:07.391Z,28.30
2018-08-22T02:57:35.933Z,21.63
2018-08-22T03:00:04.613Z,16.47
2018-08-22T03:02:33.099Z,18.97
2018-08-22T03:05:01.608Z,19.30
2018-08-22T03:07:30.159Z,19.27
2018-08-22T03:09:58.695Z,19.30
2018-08-22T03:12:27.247Z,26.67
2018-08-22T03:14:55.750Z,18.80
2018-08-22T03:17:24.316Z,21.70
2018-08-22T03:19:52.823Z,17.27
2018-08-22T03:22:21.348Z,15.83
2018-08-22T03:24:49.862Z,23.60
2018-08-22T03:27:18.477Z,22.80
2018-08-22T03:29:47.020Z,21.83
2018-08-22T03:32:15.555Z,26.07
2018-08-22T03:34:44.151Z,32.70
2018-08-22T03:37:12.684Z,19.70
2018-08-22T03:39:41.208Z,22.90
2018-08-22T03:42:09.726Z,23.60
2018-08-22T03:44:38.296Z,20.97
2018-08-22T03:47:06.812Z,21.20
2018-08-22T03:49:35.320Z,17.37
2018-08-22T03:52:03.855Z,19.23
2018-08-22T03:54:32.397Z,17.60
2018-08-22T03:57:00.924Z,18.77
2018-08-22T03:59:29.496Z,18.87
2018-08-22T04:01:58.035Z,18.73
2018-08-22T04:04:26.592Z,17.83
2018-08-22T04:06:55.152Z,26.77
2018-08-22T04:09:23.708Z,20.47
2018-08-22T04:11:52.262Z,19.53
2018-08-22T04:14:20.772Z,16.40
2018-08-22T04:16:49.333Z,17.27
2018-08-22T04:19:17.870Z,28.87
2018-08-22T04:21:46.424Z,17.53
2018-08-22T04:24:14.979Z,23.60
2018-08-22T04:26:43.516Z,18.70
2018-08-22T04:29:12.866Z,15.70
2018-08-22T04:31:41.654Z,17.67
2018-08-22T04:34:10.239Z,36.83
2018-08-22T04:36:38.804Z,19.70
2018-08-22T04:39:08.395Z,18.47
2018-08-22T04:41:36.924Z,16.93
2018-08-22T04:44:05.472Z,16.50
2018-08-22T04:46:34.221Z,20.33
2018-08-22T04:49:03.009Z,20.10
2018-08-22T04:51:31.719Z,25.17
2018-08-22T04:54:03.512Z,19.00
2018-08-22T04:56:32.095Z,18.90
2018-08-22T04:59:00.595Z,20.23
2018-08-22T05:01:29.136Z,15.00
2018-08-22T05:03:57.650Z,22.10
2018-08-22T05:06:26.220Z,25.93
2018-08-22T05:08:54.741Z,25.20
2018-08-22T05:11:23.325Z,20.33
2018-08-22T05:13:51.828Z,26.30
2018-08-22T05:16:20.346Z,51.73
2018-08-22T05:18:48.919Z,24.20
2018-08-22T05:21:17.448Z,24.40
2018-08-22T05:23:46.141Z,33.73
2018-08-22T05:26:14.742Z,24.83
2018-08-22T05:28:43.281Z,20.57
2018-08-22T05:31:11.844Z,17.50
2018-08-22T05:33:40.383Z,26.03
2018-08-22T05:36:08.982Z,24.60
2018-08-22T05:38:37.531Z,24.13
2018-08-22T05:41:06.066Z,21.73
2018-08-22T05:43:34.599Z,26.60
2018-08-22T05:46:03.251Z,21.23
2018-08-22T05:48:31.747Z,25.27
2018-08-22T05:51:00.351Z,21.83
2018-08-22T05:53:28.856Z,25.30
2018-08-22T05:55:57.388Z,22.23
2018-08-22T05:58:25.889Z,31.90
2018-08-22T06:00:54.476Z,18.27
2018-08-22T06:03:23.080Z,49.93
2018-08-22T06:05:51.511Z,27.37
2018-08-22T06:08:20.281Z,36.47
2018-08-22T06:10:48.791Z,19.90
2018-08-22T06:13:17.352Z,23.10
2018-08-22T06:15:45.898Z,27.83
2018-08-22T06:18:14.429Z,21.40
2018-08-22T06:20:42.959Z,19.23
2018-08-22T06:23:11.508Z,16.67
2018-08-22T06:25:40.138Z,17.20
2018-08-22T06:28:08.667Z,18.17
2018-08-22T06:30:37.216Z,15.80
2018-08-22T06:33:05.820Z,19.43
2018-08-22T06:35:34.678Z,19.63
2018-08-22T06:38:03.232Z,19.63
2018-08-22T06:40:31.746Z,16.60
2018-08-22T06:43:00.287Z,15.00
2018-08-22T06:45:28.831Z,17.60
2018-08-22T06:47:57.346Z,15.57
2018-08-22T06:50:25.858Z,15.63
2018-08-22T06:52:54.323Z,23.30
2018-08-22T06:55:22.887Z,16.97
2018-08-22T06:57:51.444Z,15.90
2018-08-22T07:00:19.952Z,15.17
2018-08-22T07:02:48.480Z,20.30
2018-08-22T07:05:16.995Z,20.17
2018-08-22T07:07:45.506Z,16.67
2018-08-22T07:10:14.041Z,14.63
2018-08-22T07:12:42.811Z,11.70
2018-08-22T07:15:11.347Z,14.80
2018-08-22T07:17:39.841Z,9.30
2018-08-22T07:20:08.668Z,18.20
2018-08-22T07:22:37.192Z,7.90
2018-08-22T07:25:05.751Z,9.90
2018-08-22T07:27:34.283Z,8.63
2018-08-22T07:30:02.924Z,11.30
2018-08-22T07:32:31.418Z,8.00
2018-08-22T07:34:59.959Z,11.23
2018-08-22T07:37:28.454Z,6.93
2018-08-22T07:39:56.956Z,12.60
2018-08-22T07:42:25.453Z,12.63
2018-08-22T07:44:53.968Z,10.17
2018-08-22T07:47:22.479Z,10.50
2018-08-22T07:49:50.994Z,10.53
2018-08-22T07:52:19.510Z,9.67
2018-08-22T07:54:48.097Z,9.73
2018-08-22T07:57:17.883Z,20.50
2018-08-22T07:59:46.412Z,14.53
2018-08-22T08:02:14.927Z,12.73
2018-08-22T08:04:43.475Z,12.60
2018-08-22T08:07:12.103Z,10.00
2018-08-22T08:09:40.638Z,12.47
2018-08-22T08:12:09.236Z,10.27
2018-08-22T08:14:37.737Z,9.40
2018-08-22T08:17:06.364Z,14.60
2018-08-22T08:19:34.821Z,9.13
2018-08-22T08:22:03.328Z,13.63
2018-08-22T08:24:31.922Z,9.20
2018-08-22T08:27:00.443Z,8.77
2018-08-22T08:29:28.976Z,15.70
2018-08-22T08:31:57.463Z,11.53
2018-08-22T08:34:25.956Z,7.90
2018-08-22T08:36:54.550Z,9.67
2018-08-22T08:39:23.070Z,6.63
2018-08-22T08:41:51.676Z,12.00
2018-08-22T08:44:20.244Z,7.83
2018-08-22T08:46:48.818Z,11.30
2018-08-22T08:49:17.403Z,9.07
2018-08-22T08:51:57.296Z,9.53
2018-08-22T08:54:25.804Z,10.27
2018-08-22T08:56:54.328Z,16.87
2018-08-22T08:59:23.048Z,12.27
2018-08-22T09:01:51.593Z,19.20
2018-08-22T09:04:20.128Z,13.70
2018-08-22T09:06:49.435Z,13.90
2018-08-22T09:09:17.968Z,9.00
2018-08-22T09:11:50.479Z,8.97
2018-08-22T09:14:18.987Z,8.50
2018-08-22T09:16:47.533Z,10.90
2018-08-22T09:19:16.049Z,6.07
2018-08-22T09:21:44.568Z,14.80
2018-08-22T09:24:13.152Z,8.20
2018-08-22T09:26:42.016Z,9.63
2018-08-22T09:29:10.648Z,7.50
2018-08-22T09:31:39.329Z,7.00
2018-08-22T09:34:07.927Z,8.23
2018-08-22T09:36:36.486Z,8.47
2018-08-22T09:39:08.157Z,10.20
2018-08-22T09:41:36.684Z,5.57
2018-08-22T09:44:05.554Z,9.53
2018-08-22T09:46:34.115Z,17.37
2018-08-22T09:49:02.596Z,7.40
2018-08-22T09:51:31.189Z,7.43
2018-08-22T09:53:59.707Z,7.50
2018-08-22T09:56:28.208Z,7.07
2018-08-22T09:58:56.799Z,6.00
2018-08-22T10:01:30.740Z,8.40
2018-08-22T10:04:00.571Z,9.67
2018-08-22T10:06:32.492Z,8.30
2018-08-22T10:09:01.947Z,6.40
2018-08-22T10:11:30.485Z,11.10
2018-08-22T10:13:59.146Z,8.03
2018-08-22T10:16:28.721Z,14.20
2018-08-22T10:18:57.419Z,7.10
2018-08-22T10:21:26.708Z,6.23
2018-08-22T10:23:55.231Z,43.43
2018-08-22T10:26:23.860Z,9.97
2018-08-22T10:28:52.876Z,9.10
2018-08-22T10:31:21.651Z,9.17
2018-08-22T10:33:50.172Z,6.87
2018-08-22T10:36:18.709Z,6.60
2018-08-22T10:38:47.256Z,6.30
2018-08-22T10:41:15.800Z,6.13
2018-08-22T10:43:44.328Z,7.50
2018-08-22T10:46:12.855Z,7.80
2018-08-22T10:48:41.397Z,13.57
2018-08-22T10:51:09.873Z,6.60
2018-08-22T10:53:38.544Z,7.67
2018-08-22T10:56:07.067Z,6.47
2018-08-22T10:58:35.637Z,9.80
2018-08-22T11:01:04.197Z,8.53
2018-08-22T11:03:32.745Z,7.33
2018-08-22T11:06:01.272Z,10.00
2018-08-22T11:08:29.784Z,8.73
2018-08-22T11:10:58.303Z,7.87
2018-08-22T11:13:26.795Z,6.67
2018-08-22T11:15:55.377Z,5.60
2018-08-22T11:18:23.860Z,11.90
2018-08-22T11:20:52.612Z,6.40
2018-08-22T11:23:33.062Z,8.83
2018-08-22T11:26:13.359Z,6.33
2018-08-22T11:28:53.152Z,9.53
2018-08-22T11:31:32.888Z,4.50
2018-08-22T11:34:12.707Z,6.47
2018-08-22T11:36:41.986Z,9.63
2018-08-22T11:39:10.531Z,6.37
2018-08-22T11:41:39.012Z,8.13
2018-08-22T11:44:07.556Z,8.53
2018-08-22T11:46:36.092Z,5.33
2018-08-22T11:49:04.632Z,6.10
2018-08-22T11:51:33.129Z,5.37
2018-08-22T11:54:01.685Z,7.17
2018-08-22T11:56:30.200Z,6.80
2018-08-22T11:58:58.720Z,6.23
2018-08-22T12:01:27.231Z,5.73
2018-08-22T12:03:55.812Z,5.40
2018-08-22T12:06:24.344Z,6.40
2018-08-22T12:08:52.856Z,14.13
2018-08-22T12:11:21.413Z,5.33
2018-08-22T12:13:49.937Z,14.10
2018-08-22T12:16:18.486Z,7.20
2018-08-22T12:18:46.994Z,5.67
2018-08-22T12:21:15.536Z,6.60
2018-08-22T12:23:44.104Z,6.40
2018-08-22T12:26:12.631Z,6.17
2018-08-22T12:28:41.194Z,9.37
2018-08-22T12:31:09.790Z,12.13
2018-08-22T12:33:38.288Z,6.50
2018-08-22T12:36:06.928Z,6.00
2018-08-22T12:38:35.424Z,5.20
2018-08-22T12:41:03.988Z,5.10
2018-08-22T12:43:32.561Z,5.63
2018-08-22T12:46:01.056Z,6.77
2018-08-22T12:48:29.628Z,8.17
2018-08-22T12:50:58.152Z,6.17
2018-08-22T12:53:27.042Z,5.40
2018-08-22T12:55:55.554Z,5.60
2018-08-22T12:58:24.089Z,8.90
2018-08-22T13:00:52.656Z,5.80
2018-08-22T13:03:21.152Z,19.60
2018-08-22T13:05:49.711Z,9.20
2018-08-22T13:08:18.275Z,7.07
2018-08-22T13:10:46.800Z,5.80
2018-08-22T13:13:15.315Z,5.83
2018-08-22T13:15:43.884Z,5.73
2018-08-22T13:18:12.421Z,6.47
2018-08-22T13:20:40.968Z,10.83
2018-08-22T13:23:09.495Z,5.53
2018-08-22T13:25:38.024Z,6.50
2018-08-22T13:28:06.567Z,6.37
2018-08-22T13:30:35.071Z,5.00
2018-08-22T13:33:03.661Z,8.23
2018-08-22T13:35:32.190Z,5.70
2018-08-22T13:38:00.714Z,9.57
2018-08-22T13:40:29.212Z,17.07
2018-08-22T13:42:57.752Z,13.10
2018-08-22T13:45:26.257Z,5.23
2018-08-22T13:47:54.813Z,24.33
2018-08-22T13:50:23.354Z,8.30
2018-08-22T13:52:52.712Z,5.10
2018-08-22T13:55:21.199Z,5.50
2018-08-22T13:57:49.724Z,9.23
2018-08-22T14:00:18.241Z,6.10
2018-08-22T14:02:46.755Z,6.50
2018-08-22T14:05:15.276Z,11.40
2018-08-22T14:07:43.763Z,5.93
2018-08-22T14:10:12.264Z,8.70
2018-08-22T14:12:40.740Z,7.97
2018-08-22T14:15:09.284Z,6.87
2018-08-22T14:17:37.829Z,51.67
2018-08-22T14:20:06.378Z,8.77
2018-08-22T14:22:34.949Z,5.83
2018-08-22T14:25:03.502Z,5.93
2018-08-22T14:27:32.267Z,7.67
2018-08-22T14:30:00.766Z,6.57
2018-08-22T14:32:29.303Z,7.13
2018-08-22T14:34:58.011Z,5.33
2018-08-22T14:37:26.540Z,7.70
2018-08-22T14:39:55.059Z,8.60
2018-08-22T14:42:23.657Z,5.60
2018-08-22T14:44:52.236Z,6.00
2018-08-22T14:47:20.732Z,8.93
2018-08-22T14:49:49.287Z,5.40
2018-08-22T14:52:17.875Z,8.33
2018-08-22T14:54:46.442Z,4.90
2018-08-22T14:57:15.020Z,4.77
2018-08-22T14:59:43.602Z,5.33
2018-08-22T15:02:12.118Z,6.23
2018-08-22T15:04:40.639Z,5.57
2018-08-22T15:07:09.192Z,5.77
2018-08-22T15:09:37.748Z,5.13
2018-08-22T15:12:06.277Z,6.20
2018-08-22T15:14:34.796Z,5.57
2018-08-22T15:17:03.406Z,6.23
2018-08-22T15:19:31.904Z,5.57
2018-08-22T15:22:00.417Z,5.30
2018-08-22T15:24:28.961Z,5.50
2018-08-22T15:26:57.479Z,6.90
2018-08-22T15:29:26.085Z,6.20
2018-08-22T15:31:54.921Z,7.20
2018-08-22T15:34:24.193Z,7.73
2018-08-22T15:36:53.029Z,6.30
2018-08-22T15:39:21.624Z,5.77
2018-08-22T15:41:50.270Z,6.10
2018-08-22T15:44:18.780Z,5.83
2018-08-22T15:46:47.286Z,7.03
2018-08-22T15:49:15.825Z,6.27
2018-08-22T15:51:44.313Z,13.80
2018-08-22T15:54:14.328Z,11.80
2018-08-22T15:56:43.114Z,7.70
2018-08-22T15:59:12.332Z,7.20
2018-08-22T16:01:40.896Z,7.30
2018-08-22T16:04:09.641Z,6.20
2018-08-22T16:06:38.177Z,9.77
2018-08-22T16:09:15.502Z,6.23
2018-08-22T16:11:44.494Z,10.03
2018-08-22T16:14:13.030Z,7.90
2018-08-22T16:16:41.591Z,12.50
2018-08-22T16:19:10.140Z,13.20
2018-08-22T16:21:38.764Z,9.10
2018-08-22T16:24:07.330Z,8.53
2018-08-22T16:26:35.858Z,17.07
2018-08-22T16:29:04.451Z,18.03
2018-08-22T16:31:39.185Z,6.90
2018-08-22T16:34:10.417Z,6.70
2018-08-22T16:36:39.586Z,6.33
2018-08-22T16:39:08.793Z,16.37
2018-08-22T16:41:38.052Z,7.27
2018-08-22T16:44:06.644Z,7.23
2018-08-22T16:46:35.164Z,11.90
2018-08-22T16:49:03.744Z,4.80
2018-08-22T16:51:32.304Z,13.10
2018-08-22T16:54:06.118Z,6.30
2018-08-22T16:56:35.144Z,9.87
2018-08-22T16:59:11.107Z,11.43
2018-08-22T17:01:41.423Z,8.00
2018-08-22T17:04:09.950Z,7.33
2018-08-22T17:06:38.480Z,11.40
2018-08-22T17:09:08.915Z,11.90
2018-08-22T17:11:37.541Z,8.97
2018-08-22T17:14:06.160Z,8.20
2018-08-22T17:16:34.694Z,6.73
2018-08-22T17:19:03.236Z,9.23
2018-08-22T17:21:31.749Z,7.13
2018-08-22T17:24:00.345Z,9.90
2018-08-22T17:26:28.868Z,11.93
2018-08-22T17:28:59.654Z,8.53
2018-08-22T17:31:29.341Z,9.40
2018-08-22T17:34:00.123Z,10.00
2018-08-22T17:36:28.647Z,9.33
2018-08-22T17:38:58.133Z,9.40
2018-08-22T17:41:28.183Z,8.93
2018-08-22T17:44:11.750Z,8.70
2018-08-22T17:46:41.754Z,14.33
2018-08-22T17:49:10.289Z,9.50
2018-08-22T17:52:03.103Z,14.20
2018-08-22T17:54:31.629Z,9.53
2018-08-22T17:57:24.095Z,11.80
2018-08-22T17:59:52.674Z,13.20
2018-08-22T18:02:21.221Z,8.97
2018-08-22T18:05:00.668Z,11.60
2018-08-22T18:07:29.252Z,8.73
2018-08-22T18:09:57.756Z,8.20
2018-08-22T18:12:27.452Z,8.20
2018-08-22T18:14:57.984Z,7.03
2018-08-22T18:17:26.492Z,16.97
2018-08-22T18:19:55.018Z,11.87
2018-08-22T18:22:27.109Z,10.47
2018-08-22T18:24:55.664Z,10.67
2018-08-22T18:27:24.340Z,11.73
2018-08-22T18:29:52.857Z,8.87
2018-08-22T18:32:21.430Z,7.97
2018-08-22T18:35:09.484Z,8.80
2018-08-22T18:37:38.510Z,11.07
2018-08-22T18:40:15.235Z,13.50
2018-08-22T18:42:44.542Z,13.67
2018-08-22T18:45:13.806Z,9.07
2018-08-22T18:47:42.343Z,22.17
2018-08-22T18:50:10.885Z,11.80
2018-08-22T18:52:39.417Z,14.33
2018-08-22T18:55:07.967Z,12.30
2018-08-22T18:57:36.564Z,16.10
2018-08-22T19:00:07.296Z,27.10
2018-08-22T19:02:35.837Z,11.80
2018-08-22T19:05:31.452Z,10.47
2018-08-22T19:08:04.600Z,14.10
2018-08-22T19:10:35.238Z,13.60
2018-08-22T19:13:09.163Z,11.40
2018-08-22T19:15:38.046Z,17.30
2018-08-22T19:18:08.663Z,14.67
2018-08-22T19:20:37.446Z,11.07
2018-08-22T19:23:06.035Z,12.37
2018-08-22T19:25:34.628Z,14.83
2018-08-22T19:28:03.476Z,13.43
2018-08-22T19:30:34.781Z,19.30
2018-08-22T19:33:03.336Z,13.43
2018-08-22T19:35:31.831Z,14.40
2018-08-22T19:38:04.315Z,12.37
2018-08-22T19:40:32.885Z,17.07
2018-08-22T19:43:01.772Z,8.57
2018-08-22T19:45:30.306Z,13.80
2018-08-22T19:47:58.823Z,12.67
2018-08-22T19:50:27.737Z,11.90
2018-08-22T19:52:56.252Z,10.77
2018-08-22T19:55:24.798Z,9.97
2018-08-22T19:57:53.315Z,14.37
2018-08-22T20:00:21.840Z,18.53
2018-08-22T20:02:50.332Z,11.13
2018-08-22T20:05:18.880Z,10.13
2018-08-22T20:07:47.385Z,13.07
2018-08-22T20:10:20.267Z,16.60
2018-08-22T20:12:51.484Z,10.97
2018-08-22T20:15:20.075Z,13.23
2018-08-22T20:17:50.307Z,10.60
2018-08-22T20:20:19.542Z,19.27
2018-08-22T20:22:53.486Z,11.57
2018-08-22T20:25:21.984Z,15.60
2018-08-22T20:27:50.503Z,14.37
2018-08-22T20:30:21.051Z,12.10
2018-08-22T20:32:57.821Z,10.20
2018-08-22T20:35:28.848Z,14.60
2018-08-22T20:37:58.838Z,19.10
2018-08-22T20:40:27.462Z,9.97
2018-08-22T20:42:56.038Z,13.23
2018-08-22T20:45:29.929Z,15.37
2018-08-22T20:48:03.884Z,10.17
2018-08-22T20:50:32.612Z,12.87
2018-08-22T20:53:02.408Z,11.50
2018-08-22T20:55:31.385Z,10.70
2018-08-22T20:58:00.616Z,15.50
2018-08-22T21:00:29.158Z,12.50
2018-08-22T21:02:58.790Z,15.53
2018-08-22T21:05:27.340Z,14.40
2018-08-22T21:07:55.896Z,15.00
2018-08-22T21:10:24.505Z,10.20
2018-08-22T21:12:53.027Z,11.30
2018-08-22T21:15:21.523Z,11.20
2018-08-22T21:17:50.069Z,12.30
2018-08-22T21:20:23.661Z,12.77
2018-08-22T21:22:52.764Z,11.53
2018-08-22T21:25:21.303Z,11.73
2018-08-22T21:27:50.469Z,13.60
2018-08-22T21:30:19.032Z,14.20
2018-08-22T21:32:48.388Z,15.50
2018-08-22T21:35:25.780Z,13.47
2018-08-22T21:37:58.008Z,14.50
2018-08-22T21:40:26.491Z,11.87
2018-08-22T21:42:55.060Z,10.93
2018-08-22T21:45:23.612Z,10.13
2018-08-22T21:48:05.855Z,11.73
2018-08-22T21:50:34.379Z,16.80
2018-08-22T21:53:03.183Z,9.97
2018-08-22T21:55:46.515Z,10.50
2018-08-22T21:58:15.044Z,14.40
2018-08-22T22:00:43.651Z,13.37
2018-08-22T22:03:13.180Z,10.40
2018-08-22T22:05:48.652Z,15.50
2018-08-22T22:08:17.195Z,13.90
2018-08-22T22:10:45.728Z,11.20
2018-08-22T22:13:14.271Z,11.13
2018-08-22T22:15:43.987Z,10.77
2018-08-22T22:18:12.591Z,11.63
2018-08-22T22:20:41.447Z,10.20
2018-08-22T22:23:09.999Z,13.33
2018-08-22T22:25:38.611Z,14.90
2018-08-22T22:28:07.223Z,13.13
2018-08-22T22:30:35.743Z,12.90
2018-08-22T22:33:04.247Z,10.23
2018-08-22T22:35:38.567Z,16.37
2018-08-22T22:38:08.805Z,31.33
2018-08-22T22:40:37.582Z,24.47
2018-08-22T22:43:10.804Z,13.70
2018-08-22T22:45:39.409Z,11.43
2018-08-22T22:48:08.002Z,16.73
2018-08-22T22:50:36.626Z,14.10
2018-08-22T22:53:05.433Z,13.90
2018-08-22T22:55:34.152Z,15.87
2018-08-22T22:58:03.402Z,15.37
2018-08-22T23:00:32.001Z,12.87
2018-08-22T23:03:06.420Z,15.37
2018-08-22T23:05:35.064Z,13.73
2018-08-22T23:08:03.736Z,11.73
2018-08-22T23:10:32.267Z,11.53
2018-08-22T23:13:00.796Z,14.80
2018-08-22T23:15:30.407Z,11.03
2018-08-22T23:18:00.977Z,14.80
2018-08-22T23:20:35.299Z,12.07
2018-08-22T23:23:05.480Z,12.77
2018-08-22T23:25:34.003Z,11.90
2018-08-22T23:28:02.580Z,12.90
2018-08-22T23:30:34.761Z,11.43
2018-08-22T23:33:03.504Z,13.13
2018-08-22T23:35:33.253Z,14.43
2018-08-22T23:38:03.068Z,13.63
2018-08-22T23:40:32.973Z,16.20
2018-08-22T23:43:01.557Z,13.33
2018-08-22T23:45:30.104Z,11.50
2018-08-22T23:47:58.604Z,11.80
2018-08-22T23:50:37.271Z,12.80
2018-08-22T23:53:05.858Z,12.53
2018-08-22T23:55:34.480Z,11.23
2018-08-22T23:58:03.051Z,14.53
